Time;durP1;ratioP1;P1;durP2;ratioP2;P2;SDS_P1;SDS_P2;PMS_P1;PMS_P2;Temp;Humidity;BMP_temperature;BMP_pressure;BME280_temperature;BME280_humidity;BME280_pressure;Samples;Min_cycle;Max_cycle;Signal;HPM_P1;HPM_P2
2021/06/12 00:00:59;;;;;;;;;;;;;;;18.51;68.89;101817.19;5258371;28;19916;-68
2021/06/12 00:03:35;;;;;;;;;;;;;;;18.48;69.87;101807.72;5280219;28;19932;-68
2021/06/12 00:06:06;;;;;;;;;;;;;;;18.46;70.10;101804.41;5282358;28;20002;-68
2021/06/12 00:08:38;;;;;;;;;;;;;;;18.44;70.89;101813.50;5280536;28;19945;-71
2021/06/12 00:11:09;;;;;;;;;;;;;;;18.42;69.32;101812.84;5277520;28;19919;-66
2021/06/12 00:13:40;;;;;;;;;;;;;;;18.41;69.53;101819.97;5275786;28;20064;-68
2021/06/12 00:16:11;;;;;;;;;;;;;;;18.39;69.73;101819.28;5279081;28;20002;-68
2021/06/12 00:18:42;;;;;;;;;;;;;;;18.36;69.66;101805.50;5280703;28;20010;-68
2021/06/12 00:21:15;;;;;;;;;;;;;;;18.33;69.94;101811.13;5277984;28;19942;-70
2021/06/12 00:23:46;;;;;;;;;;;;;;;18.32;70.07;101806.81;5262040;28;19932;-67
2021/06/12 00:26:17;;;;;;;;;;;;;;;18.29;70.02;101807.13;5262218;28;19935;-68
2021/06/12 00:28:48;;;;;;;;;;;;;;;18.26;69.63;101805.63;5280453;28;19917;-68
2021/06/12 00:31:20;;;;;;;;;;;;;;;18.24;70.10;101803.13;5259343;28;19916;-68
2021/06/12 00:33:51;;;;;;;;;;;;;;;18.23;69.89;101811.25;5259400;28;19916;-68
2021/06/12 00:36:23;;;;;;;;;;;;;;;18.20;69.36;101796.47;5259795;28;20272;-69
2021/06/12 00:38:55;;;;;;;;;;;;;;;18.17;69.36;101807.38;5282016;28;19923;-67
2021/06/12 00:41:27;;;;;;;;;;;;;;;18.14;70.13;101812.16;5255333;28;19938;-67
2021/06/12 00:43:58;;;;;;;;;;;;;;;18.10;70.69;101805.50;5279899;28;20509;-68
2021/06/12 00:46:29;;;;;;;;;;;;;;;18.06;71.00;101797.03;5276483;28;21445;-67
2021/06/12 00:49:01;;;;;;;;;;;;;;;18.03;69.88;101797.34;5250968;28;19920;-69
2021/06/12 00:51:32;;;;;;;;;;;;;;;17.99;70.97;101801.28;5280898;28;20007;-68
2021/06/12 00:54:03;;;;;;;;;;;;;;;17.95;72.53;101792.81;5278741;28;19916;-68
2021/06/12 00:56:34;;;;;;;;;;;;;;;17.93;71.47;101791.31;5259131;28;19924;-68
2021/06/12 00:59:06;;;;;;;;;;;;;;;17.91;72.45;101790.63;5277834;28;20015;-70
2021/06/12 01:01:37;;;;;;;;;;;;;;;17.86;73.22;101785.81;5278066;28;19916;-68
2021/06/12 01:04:08;;;;;;;;;;;;;;;17.84;72.99;101792.25;5280662;28;19920;-68
2021/06/12 01:06:40;;;;;;;;;;;;;;;17.80;72.00;101791.72;5281236;28;19916;-68
2021/06/12 01:09:11;;;;;;;;;;;;;;;17.75;74.33;101791.34;5279459;28;20415;-68
2021/06/12 01:11:55;;;;;;;;;;;;;;;17.73;74.04;101780.88;5280804;28;20500;-67
2021/06/12 01:14:28;;;;;;;;;;;;;;;17.68;74.60;101777.00;5291143;28;19912;-66
2021/06/12 01:17:08;;;;;;;;;;;;;;;17.65;74.29;101775.53;5288101;28;20006;-67
2021/06/12 01:19:45;;;;;;;;;;;;;;;17.61;74.15;101775.97;5279786;28;19974;-67
2021/06/12 01:22:24;;;;;;;;;;;;;;;17.59;74.67;101777.94;5284233;28;19920;-67
2021/06/12 01:24:56;;;;;;;;;;;;;;;17.56;73.63;101779.06;5284215;28;19920;-67
2021/06/12 01:27:40;;;;;;;;;;;;;;;17.55;73.68;101782.72;5285220;28;19927;-67
2021/06/12 01:30:15;;;;;;;;;;;;;;;17.52;73.77;101788.31;5266753;28;19922;-67
2021/06/12 01:32:48;;;;;;;;;;;;;;;17.48;75.17;101787.78;5285643;28;20357;-68
2021/06/12 01:35:28;;;;;;;;;;;;;;;17.45;74.43;101787.25;5288726;28;20365;-68
2021/06/12 01:38:01;;;;;;;;;;;;;;;17.43;73.71;101784.78;5284124;28;20007;-70
2021/06/12 01:40:33;;;;;;;;;;;;;;;17.40;73.30;101790.38;5286435;28;19931;-67
2021/06/12 01:43:06;;;;;;;;;;;;;;;17.37;74.91;101787.19;5269501;28;19912;-67
2021/06/12 01:45:42;;;;;;;;;;;;;;;17.33;75.03;101784.00;5287379;28;20408;-67
2021/06/12 01:48:15;;;;;;;;;;;;;;;17.31;74.66;101774.53;5284476;28;19928;-67
2021/06/12 01:50:46;;;;;;;;;;;;;;;17.29;74.88;101784.47;5285981;28;19916;-67
2021/06/12 01:53:19;;;;;;;;;;;;;;;17.25;76.03;101786.59;5287566;28;20380;-67
2021/06/12 01:55:50;;;;;;;;;;;;;;;17.22;75.51;101786.88;5286713;28;20387;-67
2021/06/12 01:58:22;;;;;;;;;;;;;;;17.21;75.43;101785.22;5287089;28;19920;-67
2021/06/12 02:00:54;;;;;;;;;;;;;;;17.19;75.47;101781.88;5282895;28;19931;-68
2021/06/12 02:03:25;;;;;;;;;;;;;;;17.16;75.65;101783.03;5286395;28;20038;-67
2021/06/12 02:05:58;;;;;;;;;;;;;;;17.16;75.70;101782.19;5288881;28;19912;-67
2021/06/12 02:08:30;;;;;;;;;;;;;;;17.13;76.37;101788.63;5268273;28;19931;-68
2021/06/12 02:11:01;;;;;;;;;;;;;;;17.10;75.76;101794.22;5269543;28;19916;-67
2021/06/12 02:13:33;;;;;;;;;;;;;;;17.10;75.14;101788.91;5285599;28;19916;-68
2021/06/12 02:16:04;;;;;;;;;;;;;;;17.09;77.02;101797.03;5269607;28;19994;-67
2021/06/12 02:18:37;;;;;;;;;;;;;;;17.07;76.43;101788.38;5287551;28;20348;-67
2021/06/12 02:21:08;;;;;;;;;;;;;;;17.02;76.37;101784.38;5284573;28;19912;-67
2021/06/12 02:23:40;;;;;;;;;;;;;;;16.99;76.50;101782.00;5285478;28;20428;-67
2021/06/12 02:26:12;;;;;;;;;;;;;;;16.96;77.69;101786.78;5286226;28;20010;-67
2021/06/12 02:28:44;;;;;;;;;;;;;;;16.97;77.68;101788.44;5288191;28;20456;-68
2021/06/12 02:31:17;;;;;;;;;;;;;;;16.95;77.99;101787.75;5287116;28;19911;-68
2021/06/12 02:33:48;;;;;;;;;;;;;;;16.91;77.34;101792.53;5277257;28;19966;-67
2021/06/12 02:36:20;;;;;;;;;;;;;;;16.92;77.56;101802.13;5288012;28;20373;-68
2021/06/12 02:38:52;;;;;;;;;;;;;;;16.91;78.26;101811.03;5286839;28;19999;-67
2021/06/12 02:41:23;;;;;;;;;;;;;;;16.89;78.62;101815.63;5286805;28;20440;-69
2021/06/12 02:43:54;;;;;;;;;;;;;;;16.86;80.33;101808.03;5267114;28;20288;-68
2021/06/12 02:46:30;;;;;;;;;;;;;;;16.82;79.28;101811.94;5285353;28;19916;-66
2021/06/12 02:49:04;;;;;;;;;;;;;;;16.82;78.45;101811.94;5272346;28;19960;-68
2021/06/12 02:51:41;;;;;;;;;;;;;;;16.80;79.42;101821.00;5286736;28;19912;-68
2021/06/12 02:54:14;;;;;;;;;;;;;;;16.77;79.14;101817.66;5283885;28;20020;-68
2021/06/12 02:56:45;;;;;;;;;;;;;;;16.75;80.23;101814.34;5283723;28;19920;-67
2021/06/12 02:59:17;;;;;;;;;;;;;;;16.73;81.11;101799.53;5287147;28;20270;-68
2021/06/12 03:01:49;;;;;;;;;;;;;;;16.72;81.02;101789.94;5267667;28;20281;-68
2021/06/12 03:04:20;;;;;;;;;;;;;;;16.68;82.50;101789.41;5284219;28;20327;-68
2021/06/12 03:06:52;;;;;;;;;;;;;;;16.68;82.18;101783.28;5284904;28;19943;-68
2021/06/12 03:09:27;;;;;;;;;;;;;;;16.66;82.13;101780.78;5287642;28;19919;-68
2021/06/12 03:11:59;;;;;;;;;;;;;;;16.65;80.81;101783.56;5286612;28;19907;-67
2021/06/12 03:14:31;;;;;;;;;;;;;;;16.63;81.53;101775.81;5285169;28;20384;-67
2021/06/12 03:17:03;;;;;;;;;;;;;;;16.62;81.99;101789.16;5287483;28;19931;-68
2021/06/12 03:19:36;;;;;;;;;;;;;;;16.58;81.69;101785.97;5284594;28;19916;-68
2021/06/12 03:22:07;;;;;;;;;;;;;;;16.57;81.09;101786.97;5286909;28;19973;-68
2021/06/12 03:24:39;;;;;;;;;;;;;;;16.57;81.02;101784.31;5287360;28;19920;-67
2021/06/12 03:27:11;;;;;;;;;;;;;;;16.54;82.00;101796.00;5287303;28;20236;-67
2021/06/12 03:29:42;;;;;;;;;;;;;;;16.52;80.95;101807.72;5287045;28;19923;-67
2021/06/12 03:32:13;;;;;;;;;;;;;;;16.51;80.96;101808.69;5285153;28;19915;-67
2021/06/12 03:34:45;;;;;;;;;;;;;;;16.49;81.34;101808.00;5286216;28;19912;-67
2021/06/12 03:37:17;;;;;;;;;;;;;;;16.49;80.32;101805.38;5286965;28;20029;-67
2021/06/12 03:39:48;;;;;;;;;;;;;;;16.48;81.19;101809.00;5286689;28;20292;-67
2021/06/12 03:42:20;;;;;;;;;;;;;;;16.49;80.83;101798.25;5284924;28;19923;-67
2021/06/12 03:44:54;;;;;;;;;;;;;;;16.50;81.06;101792.00;5285147;28;19965;-67
2021/06/12 03:47:25;;;;;;;;;;;;;;;16.52;81.09;101791.88;5286654;28;19966;-67
2021/06/12 03:49:57;;;;;;;;;;;;;;;16.52;80.44;101786.56;5284501;28;20436;-67
2021/06/12 03:52:28;;;;;;;;;;;;;;;16.52;81.50;101790.03;5285816;28;19961;-67
2021/06/12 03:55:00;;;;;;;;;;;;;;;16.52;80.47;101790.03;5285403;28;19955;-67
2021/06/12 03:57:32;;;;;;;;;;;;;;;16.53;80.77;101790.88;5285760;28;19970;-67
2021/06/12 04:00:08;;;;;;;;;;;;;;;16.55;80.52;101794.19;5283784;28;19916;-67
2021/06/12 04:02:39;;;;;;;;;;;;;;;16.56;80.82;101806.47;5278601;28;20254;-67
2021/06/12 04:05:10;;;;;;;;;;;;;;;16.53;81.85;101802.28;5282238;28;20231;-68
2021/06/12 04:07:41;;;;;;;;;;;;;;;16.52;80.70;101805.09;5282069;28;20408;-67
2021/06/12 04:10:13;;;;;;;;;;;;;;;16.50;81.68;101817.63;5281065;28;19923;-67
2021/06/12 04:12:44;;;;;;;;;;;;;;;16.50;82.09;101814.97;5283937;28;19908;-68
2021/06/12 04:15:15;;;;;;;;;;;;;;;16.48;81.83;101816.94;5285724;28;19995;-68
2021/06/12 04:17:47;;;;;;;;;;;;;;;16.50;82.25;101823.72;5274691;28;20384;-68
2021/06/12 04:20:18;;;;;;;;;;;;;;;16.51;81.49;101828.03;5285692;28;20006;-68
2021/06/12 04:22:49;;;;;;;;;;;;;;;16.53;80.17;101830.56;5285294;28;20254;-67
2021/06/12 04:25:21;;;;;;;;;;;;;;;16.55;81.41;101823.28;5286743;28;20323;-67
2021/06/12 04:27:52;;;;;;;;;;;;;;;16.56;81.81;101821.50;5285708;28;20147;-67
2021/06/12 04:30:23;;;;;;;;;;;;;;;16.59;81.86;101819.38;5268245;28;19942;-68
2021/06/12 04:32:55;;;;;;;;;;;;;;;16.61;82.82;101817.44;5284389;28;20353;-67
2021/06/12 04:35:28;;;;;;;;;;;;;;;16.65;82.23;101823.25;5284052;28;19924;-68
2021/06/12 04:38:00;;;;;;;;;;;;;;;16.69;81.81;101812.22;5285219;28;20322;-68
2021/06/12 04:40:32;;;;;;;;;;;;;;;16.73;81.35;101802.19;5283590;28;20019;-67
2021/06/12 04:43:05;;;;;;;;;;;;;;;16.77;81.65;101807.06;5283402;28;19943;-71
2021/06/12 04:45:36;;;;;;;;;;;;;;;16.82;81.90;101811.09;5282951;28;20328;-66
2021/06/12 04:48:08;;;;;;;;;;;;;;;16.84;81.34;101809.13;5271747;28;20058;-67
2021/06/12 04:50:39;;;;;;;;;;;;;;;16.87;80.96;101808.84;5286536;28;20377;-68
2021/06/12 04:53:11;;;;;;;;;;;;;;;16.89;80.81;101820.09;5286952;28;19918;-67
2021/06/12 04:55:43;;;;;;;;;;;;;;;16.90;81.20;101822.63;5288270;28;19915;-67
2021/06/12 04:58:14;;;;;;;;;;;;;;;16.92;81.10;101812.72;5289173;28;19931;-67
2021/06/12 05:00:48;;;;;;;;;;;;;;;16.95;80.96;101807.13;5291110;28;19912;-67
2021/06/12 05:03:20;;;;;;;;;;;;;;;16.97;81.95;101805.19;5286960;28;19919;-67
2021/06/12 05:05:51;;;;;;;;;;;;;;;17.01;81.23;101811.00;5289101;28;20381;-68
2021/06/12 05:08:22;;;;;;;;;;;;;;;17.03;81.93;101809.84;5289255;28;19920;-67
2021/06/12 05:10:54;;;;;;;;;;;;;;;17.06;81.48;101819.31;5286800;28;19984;-67
2021/06/12 05:13:25;;;;;;;;;;;;;;;17.07;82.25;101823.63;5288250;28;19942;-67
2021/06/12 05:15:56;;;;;;;;;;;;;;;17.10;81.87;101825.97;5288397;28;19919;-67
2021/06/12 05:18:41;;;;;;;;;;;;;;;17.15;81.32;101829.00;5286538;28;19916;-68
2021/06/12 05:21:13;;;;;;;;;;;;;;;17.13;81.58;101836.28;5289825;28;20369;-68
2021/06/12 05:23:44;;;;;;;;;;;;;;;17.14;81.87;101845.88;5289343;28;19912;-68
2021/06/12 05:26:17;;;;;;;;;;;;;;;17.16;82.06;101843.06;5287260;28;20312;-67
2021/06/12 05:28:48;;;;;;;;;;;;;;;17.14;81.26;101842.41;5289713;28;19916;-68
2021/06/12 05:31:19;;;;;;;;;;;;;;;17.11;82.51;101861.25;5287254;28;20395;-68
2021/06/12 05:33:50;;;;;;;;;;;;;;;17.06;82.50;101852.91;5288133;28;19974;-68
2021/06/12 05:36:21;;;;;;;;;;;;;;;17.06;82.42;101851.09;5286686;28;19912;-68
2021/06/12 05:38:53;;;;;;;;;;;;;;;17.08;82.68;101856.22;5288091;28;19927;-67
2021/06/12 05:41:24;;;;;;;;;;;;;;;17.09;82.34;101849.97;5270667;28;20019;-67
2021/06/12 05:43:55;;;;;;;;;;;;;;;17.12;82.50;101857.59;5287729;28;20320;-68
2021/06/12 05:46:26;;;;;;;;;;;;;;;17.12;82.53;101863.75;5286222;28;19927;-68
2021/06/12 05:49:01;;;;;;;;;;;;;;;17.13;81.77;101867.22;5289458;28;19951;-68
2021/06/12 05:51:32;;;;;;;;;;;;;;;17.13;82.59;101865.41;5286244;28;20012;-70
2021/06/12 05:54:04;;;;;;;;;;;;;;;17.14;83.41;101863.59;5289920;28;19978;-67
2021/06/12 05:56:35;;;;;;;;;;;;;;;17.11;83.60;101869.19;5286684;28;19920;-66
2021/06/12 05:59:06;;;;;;;;;;;;;;;17.12;83.34;101877.00;5285848;28;19919;-65
2021/06/12 06:01:37;;;;;;;;;;;;;;;17.16;83.72;101874.84;5283179;28;19923;-66
2021/06/12 06:04:09;;;;;;;;;;;;;;;17.18;83.20;101881.69;5283125;28;19920;-66
2021/06/12 06:06:40;;;;;;;;;;;;;;;17.18;83.54;101884.31;5287839;28;19920;-66
2021/06/12 06:09:11;;;;;;;;;;;;;;;17.20;82.33;101885.03;5285596;28;19947;-66
2021/06/12 06:11:42;;;;;;;;;;;;;;;17.22;82.95;101882.22;5284667;28;19921;-67
2021/06/12 06:14:13;;;;;;;;;;;;;;;17.22;83.74;101890.16;5270205;28;20258;-67
2021/06/12 06:16:45;;;;;;;;;;;;;;;17.20;83.92;101890.31;5290025;28;19908;-68
2021/06/12 06:19:16;;;;;;;;;;;;;;;17.19;84.20;101888.63;5286568;28;19920;-66
2021/06/12 06:21:47;;;;;;;;;;;;;;;17.18;84.36;101868.44;5285673;28;20288;-67
2021/06/12 06:24:18;;;;;;;;;;;;;;;17.22;84.53;101879.56;5285022;28;19908;-67
2021/06/12 06:26:50;;;;;;;;;;;;;;;17.23;84.44;101879.41;5286464;28;19925;-66
2021/06/12 06:29:21;;;;;;;;;;;;;;;17.21;85.88;101880.56;5283930;28;19912;-67
2021/06/12 06:31:52;;;;;;;;;;;;;;;17.25;85.46;101882.75;5266252;28;20123;-67
2021/06/12 06:34:23;;;;;;;;;;;;;;;17.30;84.17;101884.94;5289640;28;20351;-67
2021/06/12 06:36:54;;;;;;;;;;;;;;;17.35;84.35;101881.84;5286080;28;19916;-66
2021/06/12 06:39:25;;;;;;;;;;;;;;;17.38;84.82;101884.22;5268467;28;19976;-66
2021/06/12 06:41:57;;;;;;;;;;;;;;;17.42;84.49;101878.47;5287141;28;19916;-67
2021/06/12 06:44:28;;;;;;;;;;;;;;;17.46;84.29;101884.28;5269646;28;19908;-68
2021/06/12 06:46:59;;;;;;;;;;;;;;;17.49;84.13;101884.81;5285769;28;19920;-68
2021/06/12 06:49:30;;;;;;;;;;;;;;;17.57;84.03;101881.44;5286651;28;19913;-67
2021/06/12 06:52:02;;;;;;;;;;;;;;;17.67;83.65;101876.91;5286830;28;19913;-66
2021/06/12 06:54:34;;;;;;;;;;;;;;;17.78;83.32;101883.81;5286530;28;19939;-66
2021/06/12 06:57:05;;;;;;;;;;;;;;;17.87;83.10;101890.03;5284250;28;19920;-66
2021/06/12 06:59:36;;;;;;;;;;;;;;;17.95;82.57;101893.56;5285563;28;19912;-68
2021/06/12 07:02:07;;;;;;;;;;;;;;;18.04;82.14;101893.66;5285006;28;20487;-67
2021/06/12 07:04:39;;;;;;;;;;;;;;;18.09;82.00;101897.50;5279497;28;20382;-67
2021/06/12 07:07:10;;;;;;;;;;;;;;;18.14;82.13;101902.34;5284382;28;20005;-67
2021/06/12 07:09:41;;;;;;;;;;;;;;;18.16;81.95;101901.22;5286374;28;19923;-67
2021/06/12 07:12:12;;;;;;;;;;;;;;;18.25;81.85;101910.06;5288102;28;20365;-67
2021/06/12 07:14:44;;;;;;;;;;;;;;;18.30;81.46;101910.44;5282600;28;19962;-67
2021/06/12 07:17:15;;;;;;;;;;;;;;;18.39;81.21;101906.03;5269425;28;19916;-67
2021/06/12 07:19:46;;;;;;;;;;;;;;;18.50;79.69;101910.25;5285113;28;19958;-67
2021/06/12 07:22:17;;;;;;;;;;;;;;;18.53;80.42;101908.09;5285452;28;19908;-69
2021/06/12 07:24:49;;;;;;;;;;;;;;;18.57;80.18;101908.63;5285617;28;20057;-66
2021/06/12 07:27:20;;;;;;;;;;;;;;;18.67;79.98;101904.03;5288722;28;20088;-66
2021/06/12 07:29:51;;;;;;;;;;;;;;;18.81;79.60;101905.31;5284132;28;20264;-68
2021/06/12 07:32:22;;;;;;;;;;;;;;;18.94;79.53;101911.00;5285579;28;20650;-68
2021/06/12 07:34:54;;;;;;;;;;;;;;;19.06;78.69;101906.25;5286624;28;19908;-67
2021/06/12 07:37:25;;;;;;;;;;;;;;;19.22;78.14;101908.13;5284303;28;19908;-68
2021/06/12 07:39:56;;;;;;;;;;;;;;;19.34;77.45;101909.50;5285560;28;20011;-67
2021/06/12 07:42:27;;;;;;;;;;;;;;;19.40;76.64;101915.00;5285995;28;19943;-68
2021/06/12 07:44:58;;;;;;;;;;;;;;;19.55;76.78;101906.41;5284413;28;20372;-68
2021/06/12 07:47:30;;;;;;;;;;;;;;;19.66;76.55;101904.31;5285701;28;20003;-68
2021/06/12 07:50:02;;;;;;;;;;;;;;;19.80;76.46;101913.44;5283616;28;20389;-69
2021/06/12 07:52:33;;;;;;;;;;;;;;;19.85;75.40;101918.25;5287143;28;19999;-68
2021/06/12 07:55:05;;;;;;;;;;;;;;;19.87;74.85;101914.44;5292372;28;20348;-68
2021/06/12 07:57:36;;;;;;;;;;;;;;;19.82;74.89;101919.44;5285042;28;19981;-68
2021/06/12 08:00:10;;;;;;;;;;;;;;;19.83;73.95;101920.25;5284203;28;20300;-68
2021/06/12 08:02:42;;;;;;;;;;;;;;;19.89;74.89;101925.75;5282891;28;20357;-67
2021/06/12 08:05:13;;;;;;;;;;;;;;;20.06;74.80;101920.44;5285543;28;19991;-68
2021/06/12 08:07:44;;;;;;;;;;;;;;;20.24;73.78;101912.28;5279076;28;19920;-68
2021/06/12 08:10:15;;;;;;;;;;;;;;;20.42;73.66;101921.75;5285711;28;20350;-68
2021/06/12 08:12:46;;;;;;;;;;;;;;;20.49;71.77;101913.94;5284982;28;19912;-67
2021/06/12 08:15:18;;;;;;;;;;;;;;;20.53;71.59;101919.75;5285560;28;19916;-67
2021/06/12 08:17:50;;;;;;;;;;;;;;;20.55;71.55;101928.41;5268796;28;19915;-67
2021/06/12 08:20:22;;;;;;;;;;;;;;;20.63;72.44;101931.88;5283557;28;19917;-67
2021/06/12 08:22:54;;;;;;;;;;;;;;;20.63;70.34;101936.38;5285259;28;19916;-67
2021/06/12 08:25:25;;;;;;;;;;;;;;;20.56;69.82;101922.91;5283839;28;20227;-67
2021/06/12 08:28:02;;;;;;;;;;;;;;;20.46;68.86;101927.56;5283970;28;19916;-68
2021/06/12 08:30:36;;;;;;;;;;;;;;;20.32;69.49;101939.72;5283825;28;20461;-68
2021/06/12 08:33:08;;;;;;;;;;;;;;;20.21;68.24;101939.22;5283106;28;19958;-68
2021/06/12 08:35:39;;;;;;;;;;;;;;;20.26;69.63;101940.38;5280042;28;20389;-69
2021/06/12 08:38:11;;;;;;;;;;;;;;;20.33;69.53;101937.88;5281052;28;20285;-69
2021/06/12 08:40:42;;;;;;;;;;;;;;;20.44;68.83;101942.03;5282414;28;19920;-68
2021/06/12 08:43:18;;;;;;;;;;;;;;;20.48;68.41;101941.53;5265155;28;19922;-68
2021/06/12 08:45:49;;;;;;;;;;;;;;;20.59;67.96;101943.88;5281672;28;19920;-69
2021/06/12 08:48:20;;;;;;;;;;;;;;;20.58;67.09;101949.38;5285017;28;20399;-68
2021/06/12 08:50:53;;;;;;;;;;;;;;;20.64;67.46;101949.50;5283770;28;19943;-68
2021/06/12 08:53:24;;;;;;;;;;;;;;;20.72;67.99;101951.38;5285158;28;19915;-68
2021/06/12 08:55:55;;;;;;;;;;;;;;;20.82;67.30;101953.81;5281915;28;20003;-67
2021/06/12 08:58:27;;;;;;;;;;;;;;;20.81;67.63;101954.81;5284540;28;19926;-67
2021/06/12 09:00:58;;;;;;;;;;;;;;;20.88;65.22;101953.16;5284477;28;19916;-68
2021/06/12 09:03:29;;;;;;;;;;;;;;;20.95;65.16;101948.81;5264779;28;19916;-68
2021/06/12 09:06:04;;;;;;;;;;;;;;;21.05;62.84;101953.91;5282880;28;19912;-68
2021/06/12 09:08:39;;;;;;;;;;;;;;;21.07;64.82;101968.75;5274773;28;19966;-68
2021/06/12 09:11:15;;;;;;;;;;;;;;;20.99;62.44;101967.94;5271853;28;19928;-69
2021/06/12 09:13:48;;;;;;;;;;;;;;;21.04;64.47;101966.41;5278621;28;19916;-69
2021/06/12 09:16:22;;;;;;;;;;;;;;;21.04;63.59;101962.91;5259963;28;19912;-69
2021/06/12 09:18:54;;;;;;;;;;;;;;;20.97;63.25;101970.75;5283901;28;19919;-67
2021/06/12 09:21:34;;;;;;;;;;;;;;;20.93;62.18;101977.44;5282014;28;20369;-69
2021/06/12 09:24:07;;;;;;;;;;;;;;;20.93;62.42;101982.75;5282921;28;19998;-68
2021/06/12 09:26:47;;;;;;;;;;;;;;;20.87;60.91;101986.94;5281669;28;19990;-68
2021/06/12 09:29:20;;;;;;;;;;;;;;;20.82;60.40;101980.44;5285178;28;19912;-68
2021/06/12 09:31:51;;;;;;;;;;;;;;;20.90;61.17;101975.94;5280556;28;20294;-70
2021/06/12 09:34:23;;;;;;;;;;;;;;;21.05;62.21;101976.06;5286288;28;20003;-68
2021/06/12 09:36:55;;;;;;;;;;;;;;;21.21;58.30;101988.50;5283401;28;19916;-68
2021/06/12 09:39:26;;;;;;;;;;;;;;;21.36;58.32;101981.47;5282385;28;20007;-67
2021/06/12 09:41:57;;;;;;;;;;;;;;;21.41;56.37;101986.28;5286584;28;20328;-68
2021/06/12 09:44:44;;;;;;;;;;;;;;;21.39;56.17;101972.28;5284458;28;20388;-67
2021/06/12 09:47:15;;;;;;;;;;;;;;;21.59;56.48;101980.69;5284801;28;20008;-69
2021/06/12 09:49:47;;;;;;;;;;;;;;;21.78;57.32;101979.41;5285064;28;20024;-67
2021/06/12 09:52:19;;;;;;;;;;;;;;;21.86;57.47;101990.06;5283488;28;19916;-67
2021/06/12 09:54:51;;;;;;;;;;;;;;;22.00;55.94;101999.94;5286300;28;19959;-67
2021/06/12 09:57:24;;;;;;;;;;;;;;;22.06;54.12;101995.75;5283193;28;19970;-68
2021/06/12 09:59:56;;;;;;;;;;;;;;;22.17;55.02;101999.88;5285232;28;19912;-67
2021/06/12 10:02:35;;;;;;;;;;;;;;;22.24;55.91;101987.47;5285568;28;19969;-67
2021/06/12 10:05:07;;;;;;;;;;;;;;;22.24;54.79;101987.47;5285810;28;19965;-67
2021/06/12 10:07:39;;;;;;;;;;;;;;;22.30;53.40;102005.44;5285271;28;20388;-66
2021/06/12 10:10:12;;;;;;;;;;;;;;;22.32;52.01;102011.44;5284729;28;19951;-67
2021/06/12 10:12:43;;;;;;;;;;;;;;;22.32;52.82;102011.44;5258424;28;19985;-67
2021/06/12 10:15:16;;;;;;;;;;;;;;;22.28;51.18;102002.13;5263016;28;20199;-68
2021/06/12 10:17:48;;;;;;;;;;;;;;;22.33;51.56;102015.75;5285163;28;19916;-67
2021/06/12 10:20:21;;;;;;;;;;;;;;;22.23;51.35;102020.50;5265790;28;19920;-67
2021/06/12 10:22:54;;;;;;;;;;;;;;;22.29;49.99;102012.63;5286727;28;19919;-67
2021/06/12 10:25:25;;;;;;;;;;;;;;;22.45;50.08;102014.31;5264944;28;19974;-67
2021/06/12 10:27:57;;;;;;;;;;;;;;;22.69;52.15;102007.94;5284424;28;19923;-66
2021/06/12 10:30:29;;;;;;;;;;;;;;;22.93;50.94;102001.53;5287810;28;19961;-66
2021/06/12 10:33:01;;;;;;;;;;;;;;;22.96;49.53;102003.84;5278352;28;20316;-67
2021/06/12 10:35:32;;;;;;;;;;;;;;;23.11;48.55;102003.84;5283522;28;19913;-67
2021/06/12 10:38:14;;;;;;;;;;;;;;;23.08;50.14;102020.25;5283628;28;19923;-66
2021/06/12 10:40:48;;;;;;;;;;;;;;;23.09;49.55;102013.06;5286594;28;19915;-66
2021/06/12 10:43:20;;;;;;;;;;;;;;;23.05;48.58;102024.13;5285676;28;19952;-67
2021/06/12 10:46:06;;;;;;;;;;;;;;;23.02;48.93;102020.97;5285140;28;20002;-67
2021/06/12 10:48:41;;;;;;;;;;;;;;;22.87;48.45;102023.59;5266283;28;19919;-67
2021/06/12 10:51:24;;;;;;;;;;;;;;;22.84;46.96;102023.97;5268339;28;20006;-67
2021/06/12 10:54:08;;;;;;;;;;;;;;;22.82;48.14;102034.84;5285657;28;19916;-67
2021/06/12 10:56:40;;;;;;;;;;;;;;;22.93;48.16;102035.47;5268552;28;19928;-67
2021/06/12 10:59:13;;;;;;;;;;;;;;;22.99;48.82;102029.38;5286398;28;19969;-67
2021/06/12 11:02:01;;;;;;;;;;;;;;;23.13;47.41;102019.69;5283231;28;20377;-67
2021/06/12 11:04:40;;;;;;;;;;;;;;;23.23;46.92;102029.09;5286582;28;19911;-69
2021/06/12 11:07:25;;;;;;;;;;;;;;;23.17;45.77;102026.34;5287200;28;19912;-68
2021/06/12 11:09:59;;;;;;;;;;;;;;;23.19;46.76;102033.16;5288439;28;19950;-68
2021/06/12 11:12:34;;;;;;;;;;;;;;;23.41;47.51;102039.44;5287309;28;19964;-68
2021/06/12 11:15:13;;;;;;;;;;;;;;;23.61;46.87;102028.16;5283838;28;19916;-71
2021/06/12 11:17:44;;;;;;;;;;;;;;;23.65;46.91;102021.41;5286397;28;19916;-71
2021/06/12 11:20:18;;;;;;;;;;;;;;;23.69;45.15;102018.19;5267172;28;20431;-70
2021/06/12 11:22:57;;;;;;;;;;;;;;;23.75;46.06;102014.78;5283433;28;19959;-70
2021/06/12 11:25:28;;;;;;;;;;;;;;;23.82;45.98;102014.81;5286562;28;19912;-69
2021/06/12 11:28:16;;;;;;;;;;;;;;;23.87;45.89;102020.47;5283435;28;19916;-70
2021/06/12 11:30:48;;;;;;;;;;;;;;;23.86;45.03;102015.28;5285330;28;19919;-70
2021/06/12 11:33:20;;;;;;;;;;;;;;;23.75;44.21;102027.28;5286491;28;19912;-70
2021/06/12 11:35:56;;;;;;;;;;;;;;;23.79;46.43;102018.72;5284289;28;19912;-70
2021/06/12 11:38:27;;;;;;;;;;;;;;;24.08;45.59;102019.63;5286011;28;19951;-70
2021/06/12 11:41:00;;;;;;;;;;;;;;;24.31;44.23;102014.06;5268487;28;20407;-69
2021/06/12 11:43:38;;;;;;;;;;;;;;;24.44;44.06;102029.47;5283462;28;19908;-68
2021/06/12 11:46:30;;;;;;;;;;;;;;;24.34;42.84;102034.28;5284474;28;20300;-68
2021/06/12 11:49:05;;;;;;;;;;;;;;;24.18;44.96;102019.31;5285646;28;19931;-68
2021/06/12 11:51:39;;;;;;;;;;;;;;;24.28;45.67;102031.38;5266906;28;20338;-69
2021/06/12 11:54:12;;;;;;;;;;;;;;;24.46;44.04;102041.63;5286777;28;19908;-68
2021/06/12 11:56:54;;;;;;;;;;;;;;;24.38;44.48;102044.44;5284897;28;19920;-69
2021/06/12 11:59:28;;;;;;;;;;;;;;;24.24;43.84;102039.97;5286048;28;19916;-69
2021/06/12 12:02:01;;;;;;;;;;;;;;;24.02;44.21;102041.81;5285075;28;20367;-69
2021/06/12 12:04:39;;;;;;;;;;;;;;;23.95;43.75;102038.25;5283191;28;19908;-70
2021/06/12 12:07:12;;;;;;;;;;;;;;;23.88;41.54;102043.50;5283770;28;19921;-70
2021/06/12 12:09:46;;;;;;;;;;;;;;;23.70;43.54;102043.91;5285006;28;19913;-70
2021/06/12 12:12:20;;;;;;;;;;;;;;;23.91;43.75;102045.81;5283172;28;19916;-71
2021/06/12 12:14:52;;;;;;;;;;;;;;;23.91;41.90;102045.81;5284461;28;20369;-71
2021/06/12 12:17:24;;;;;;;;;;;;;;;23.92;40.34;102041.28;5286343;28;19922;-70
2021/06/12 12:19:55;;;;;;;;;;;;;;;23.91;41.78;102045.00;5284902;28;19916;-72
2021/06/12 12:22:48;;;;;;;;;;;;;;;23.83;42.74;102053.97;5282835;28;20277;-70
2021/06/12 12:25:25;;;;;;;;;;;;;;;23.70;43.26;102046.59;5282041;28;19927;-71
2021/06/12 12:28:11;;;;;;;;;;;;;;;23.63;43.35;102048.31;5282732;28;19970;-71
2021/06/12 12:30:42;;;;;;;;;;;;;;;23.74;42.83;102050.56;5283952;28;19907;-70
2021/06/12 12:33:18;;;;;;;;;;;;;;;23.97;42.81;102057.59;5282340;28;19917;-68
2021/06/12 12:35:50;;;;;;;;;;;;;;;23.97;43.10;102055.75;5285354;28;19918;-69
2021/06/12 12:38:22;;;;;;;;;;;;;;;23.78;42.64;102072.41;5284837;28;20293;-69
2021/06/12 12:40:53;;;;;;;;;;;;;;;23.75;43.01;102064.75;5283547;28;20356;-68
2021/06/12 12:43:25;;;;;;;;;;;;;;;23.81;43.06;102063.19;5282954;28;19917;-67
2021/06/12 12:45:56;;;;;;;;;;;;;;;23.70;40.89;102067.19;5282295;28;19916;-67
2021/06/12 12:48:27;;;;;;;;;;;;;;;23.51;41.58;102077.41;5283895;28;19923;-68
2021/06/12 12:50:59;;;;;;;;;;;;;;;23.53;42.27;102077.22;5282025;28;19916;-69
2021/06/12 12:53:38;;;;;;;;;;;;;;;23.42;42.02;102080.38;5282739;28;19922;-70
2021/06/12 12:56:09;;;;;;;;;;;;;;;23.37;43.02;102078.22;5285841;28;20041;-68
2021/06/12 12:58:41;;;;;;;;;;;;;;;23.29;41.95;102070.31;5285106;28;20013;-68
2021/06/12 13:01:14;;;;;;;;;;;;;;;23.24;41.71;102072.72;5285535;28;20072;-69
2021/06/12 13:03:46;;;;;;;;;;;;;;;23.43;42.74;102077.50;5282619;28;19912;-67